Time;durP1;ratioP1;P1;durP2;ratioP2;P2;SDS_P1;SDS_P2;PMS_P1;PMS_P2;Temp;Humidity;BMP_temperature;BMP_pressure;BME280_temperature;BME280_humidity;BME280_pressure;Samples;Min_cycle;Max_cycle;Signal;HPM_P1;HPM_P2
2024/02/06 00:01:53;;;;;;;2.70;2.40;;;6.60;99.90;;;;;;5050324;28;20217;-65
2024/02/06 00:04:20;;;;;;;3.10;2.70;;;6.60;99.90;;;;;;5049532;28;20229;-64
2024/02/06 00:06:49;;;;;;;3.97;3.00;;;6.60;99.90;;;;;;5050449;28;20197;-64
2024/02/06 00:09:16;;;;;;;3.03;2.50;;;6.60;99.90;;;;;;5033271;28;20668;-65
2024/02/06 00:11:43;;;;;;;4.50;3.13;;;6.50;99.90;;;;;;5043671;28;20201;-64
2024/02/06 00:14:11;;;;;;;6.03;4.33;;;6.50;99.90;;;;;;5032786;28;20293;-65
2024/02/06 00:16:38;;;;;;;7.20;4.77;;;6.50;99.90;;;;;;5032986;28;20233;-65
2024/02/06 00:19:05;;;;;;;7.07;4.80;;;6.50;99.90;;;;;;5049235;28;20213;-65
2024/02/06 00:21:33;;;;;;;7.50;4.80;;;6.50;99.90;;;;;;5049371;28;20225;-64
2024/02/06 00:24:01;;;;;;;5.13;4.03;;;6.60;99.90;;;;;;5031526;28;20229;-65
2024/02/06 00:26:29;;;;;;;4.80;4.13;;;6.60;99.90;;;;;;5049421;28;20182;-64
2024/02/06 00:28:56;;;;;;;5.63;3.60;;;6.60;99.90;;;;;;5049511;28;20193;-64
2024/02/06 00:31:23;;;;;;;4.33;3.50;;;6.50;99.90;;;;;;5049989;28;20201;-64
2024/02/06 00:33:50;;;;;;;3.60;3.30;;;6.50;99.90;;;;;;5050208;28;20560;-64
2024/02/06 00:36:17;;;;;;;6.43;3.90;;;6.40;99.90;;;;;;5050421;28;20538;-64
2024/02/06 00:38:45;;;;;;;5.67;3.83;;;6.40;99.90;;;;;;5033927;28;20302;-64
2024/02/06 00:41:13;;;;;;;3.43;2.93;;;6.50;99.90;;;;;;5046137;28;20248;-64
2024/02/06 00:43:40;;;;;;;4.83;3.30;;;6.50;99.90;;;;;;5034511;28;20264;-64
2024/02/06 00:46:07;;;;;;;5.00;2.70;;;6.50;99.90;;;;;;5049115;28;20646;-64
2024/02/06 00:48:34;;;;;;;4.23;2.70;;;6.50;99.90;;;;;;5048816;28;20221;-64
2024/02/06 00:51:02;;;;;;;3.60;2.60;;;6.50;99.90;;;;;;5048931;28;20210;-64
2024/02/06 00:53:29;;;;;;;4.37;2.40;;;6.40;99.90;;;;;;5049302;28;20197;-65
2024/02/06 00:55:56;;;;;;;3.67;2.90;;;6.50;99.90;;;;;;5048141;28;20323;-65
2024/02/06 00:58:24;;;;;;;4.33;2.67;;;6.50;99.90;;;;;;5049162;28;20194;-65
2024/02/06 01:00:51;;;;;;;4.03;2.00;;;6.50;99.90;;;;;;5047215;28;20202;-65
2024/02/06 01:03:19;;;;;;;1.70;1.60;;;6.50;99.90;;;;;;4997108;28;1136425;-65
2024/02/06 01:05:46;;;;;;;3.13;2.50;;;6.40;99.90;;;;;;5049482;28;20196;-63
2024/02/06 01:08:13;;;;;;;4.23;2.70;;;6.40;99.90;;;;;;5042117;28;20612;-64
2024/02/06 01:10:40;;;;;;;2.40;2.03;;;6.40;99.90;;;;;;5048156;28;20335;-65
2024/02/06 01:13:07;;;;;;;2.20;2.00;;;6.40;99.90;;;;;;5033559;28;20202;-64
2024/02/06 01:15:38;;;;;;;2.83;2.47;;;6.40;99.90;;;;;;5045154;28;20536;-64
2024/02/06 01:18:06;;;;;;;3.47;2.50;;;6.50;99.90;;;;;;5044066;28;20209;-64
2024/02/06 01:20:33;;;;;;;2.77;2.27;;;6.50;99.90;;;;;;5048638;28;20237;-65
2024/02/06 01:23:00;;;;;;;4.57;2.80;;;6.40;99.90;;;;;;5049874;28;20205;-65
2024/02/06 01:25:29;;;;;;;4.27;2.70;;;6.40;99.90;;;;;;5048605;28;20736;-64
2024/02/06 01:27:56;;;;;;;3.73;2.90;;;6.40;99.90;;;;;;5049820;28;20201;-66
2024/02/06 01:30:23;;;;;;;2.83;2.43;;;6.40;99.90;;;;;;5049383;28;20665;-65
2024/02/06 01:32:51;;;;;;;3.00;2.30;;;6.40;99.90;;;;;;5049042;28;20201;-64
2024/02/06 01:35:19;;;;;;;3.83;2.73;;;6.30;99.90;;;;;;5037775;28;20293;-65
2024/02/06 01:37:46;;;;;;;4.37;3.40;;;6.30;99.90;;;;;;5052839;28;20221;-65
2024/02/06 01:40:16;;;;;;;3.13;2.73;;;6.30;99.90;;;;;;5052334;28;20216;-64
2024/02/06 01:42:43;;;;;;;2.83;2.57;;;6.30;99.90;;;;;;5053508;28;20276;-64
2024/02/06 01:45:10;;;;;;;4.20;2.83;;;6.30;99.90;;;;;;5053598;28;20286;-64
2024/02/06 01:47:38;;;;;;;4.17;3.00;;;6.30;99.90;;;;;;5053184;28;20202;-65
2024/02/06 01:50:08;;;;;;;4.97;3.03;;;6.40;99.90;;;;;;5053337;28;20190;-63
2024/02/06 01:52:36;;;;;;;5.80;3.47;;;6.40;99.90;;;;;;5053354;28;20215;-64
2024/02/06 01:55:03;;;;;;;5.53;3.10;;;6.40;99.90;;;;;;5039653;28;20312;-64
2024/02/06 01:57:32;;;;;;;5.20;3.00;;;6.40;99.90;;;;;;5050907;28;20580;-64
2024/02/06 02:00:00;;;;;;;6.50;3.97;;;6.30;99.90;;;;;;5053074;28;20225;-64
2024/02/06 02:02:28;;;;;;;5.27;3.67;;;6.30;99.90;;;;;;5051475;28;20262;-63
2024/02/06 02:04:55;;;;;;;4.80;3.47;;;6.30;99.90;;;;;;5050955;28;20322;-64
2024/02/06 02:07:25;;;;;;;5.23;3.40;;;6.20;99.90;;;;;;5053444;28;20232;-63
2024/02/06 02:09:52;;;;;;;4.93;2.67;;;6.20;99.90;;;;;;5052570;28;20252;-64
2024/02/06 02:12:19;;;;;;;4.47;2.90;;;6.20;99.90;;;;;;5053617;28;20603;-63
2024/02/06 02:14:46;;;;;;;4.47;2.97;;;6.20;99.90;;;;;;5053607;28;20557;-64
2024/02/06 02:17:13;;;;;;;9.87;5.23;;;6.10;99.90;;;;;;5051894;28;20197;-64
2024/02/06 02:19:41;;;;;;;9.00;4.47;;;6.10;99.90;;;;;;5053232;28;20232;-64
2024/02/06 02:22:09;;;;;;;9.67;5.30;;;6.10;99.90;;;;;;5052816;28;20202;-65
2024/02/06 02:24:37;;;;;;;12.33;5.47;;;6.10;99.90;;;;;;5052015;28;20202;-65
2024/02/06 02:27:05;;;;;;;12.07;5.27;;;6.10;99.90;;;;;;5053328;28;20666;-64
2024/02/06 02:29:35;;;;;;;16.03;6.37;;;6.10;99.90;;;;;;5053514;28;20202;-64
2024/02/06 02:32:03;;;;;;;19.83;8.83;;;6.10;99.90;;;;;;5052597;28;20200;-64
2024/02/06 02:34:30;;;;;;;22.17;8.47;;;6.10;99.90;;;;;;5053148;28;20251;-64
2024/02/06 02:36:57;;;;;;;19.10;7.30;;;6.10;99.90;;;;;;5052957;28;20285;-63
2024/02/06 02:39:25;;;;;;;21.57;8.97;;;6.10;99.90;;;;;;5035431;28;20302;-64
2024/02/06 02:41:52;;;;;;;16.97;8.90;;;6.10;99.90;;;;;;5050383;28;20277;-65
2024/02/06 02:44:20;;;;;;;18.87;8.97;;;6.10;99.90;;;;;;5053213;28;20196;-65
2024/02/06 02:46:47;;;;;;;16.37;7.57;;;6.20;99.90;;;;;;5052703;28;20229;-65
2024/02/06 02:49:14;;;;;;;12.83;6.87;;;6.10;99.90;;;;;;5052302;28;20224;-65
2024/02/06 02:51:41;;;;;;;14.47;7.53;;;6.10;99.90;;;;;;5053004;28;20203;-65
2024/02/06 02:54:10;;;;;;;11.37;6.63;;;6.00;99.90;;;;;;5046545;28;20202;-65
2024/02/06 02:56:39;;;;;;;8.63;5.33;;;6.00;99.90;;;;;;5033513;28;20207;-64
2024/02/06 02:59:06;;;;;;;10.97;6.97;;;6.00;99.90;;;;;;5052396;28;20195;-64
2024/02/06 03:01:33;;;;;;;11.53;7.20;;;6.10;99.90;;;;;;5052445;28;20672;-65
2024/02/06 03:04:00;;;;;;;13.83;8.03;;;6.10;99.90;;;;;;5052293;28;20259;-65
2024/02/06 03:06:27;;;;;;;11.63;6.70;;;6.10;99.90;;;;;;5052479;28;20279;-65
2024/02/06 03:08:55;;;;;;;10.47;6.80;;;6.00;99.90;;;;;;5051859;28;20198;-65
2024/02/06 03:11:22;;;;;;;7.83;5.87;;;6.10;99.90;;;;;;5034378;28;20485;-65
2024/02/06 03:13:51;;;;;;;10.33;6.27;;;6.10;99.90;;;;;;5052666;28;20195;-65
2024/02/06 03:16:18;;;;;;;9.00;6.60;;;6.10;99.90;;;;;;5050484;28;20326;-65
2024/02/06 03:18:45;;;;;;;7.40;5.37;;;6.10;99.90;;;;;;5048822;28;20252;-63
2024/02/06 03:21:12;;;;;;;4.77;4.27;;;6.00;99.90;;;;;;5052199;28;20517;-65
2024/02/06 03:23:39;;;;;;;10.33;6.10;;;6.00;99.90;;;;;;5050920;28;20219;-65
2024/02/06 03:26:06;;;;;;;8.87;5.50;;;6.00;99.90;;;;;;5050474;28;20284;-65
2024/02/06 03:28:33;;;;;;;7.20;4.80;;;5.90;99.90;;;;;;5052338;28;20610;-65
2024/02/06 03:31:02;;;;;;;8.27;5.30;;;5.80;99.90;;;;;;5051503;28;20275;-64
2024/02/06 03:33:29;;;;;;;7.03;4.23;;;5.80;99.90;;;;;;5051606;28;20193;-64
2024/02/06 03:35:56;;;;;;;8.03;5.20;;;5.80;99.90;;;;;;5041354;28;21016;-64
2024/02/06 03:38:22;;;;;;;10.17;6.23;;;5.80;99.90;;;;;;5051860;28;20199;-64
2024/02/06 03:40:49;;;;;;;11.53;6.43;;;5.70;99.90;;;;;;5048780;28;20210;-64
2024/02/06 03:43:16;;;;;;;10.83;5.80;;;5.70;99.90;;;;;;5036578;28;20564;-64
2024/02/06 03:45:43;;;;;;;10.10;5.93;;;5.70;99.90;;;;;;5051718;28;20308;-65
2024/02/06 03:48:14;;;;;;;10.13;5.77;;;5.70;99.90;;;;;;5050784;28;20192;-64
2024/02/06 03:50:41;;;;;;;10.77;5.80;;;5.70;99.90;;;;;;5026203;28;20208;-64
2024/02/06 03:53:09;;;;;;;10.63;6.10;;;5.80;99.90;;;;;;5047993;28;20192;-64
2024/02/06 03:55:37;;;;;;;14.33;7.00;;;5.80;99.90;;;;;;5050885;28;20285;-65
2024/02/06 03:58:04;;;;;;;14.60;7.90;;;5.80;99.90;;;;;;5033506;28;20568;-65
2024/02/06 04:00:32;;;;;;;10.87;6.47;;;5.80;99.90;;;;;;5051257;28;20223;-65
2024/02/06 04:02:59;;;;;;;11.17;6.83;;;5.80;99.90;;;;;;5050722;28;20204;-65
2024/02/06 04:05:27;;;;;;;9.33;5.70;;;5.80;99.90;;;;;;5051379;28;20280;-64
2024/02/06 04:07:54;;;;;;;9.53;6.10;;;5.80;99.90;;;;;;5037323;28;20223;-64
2024/02/06 04:10:22;;;;;;;11.53;5.83;;;5.70;99.90;;;;;;5049960;28;20249;-64
2024/02/06 04:12:49;;;;;;;9.00;5.60;;;5.70;99.90;;;;;;5050954;28;20192;-64
2024/02/06 04:15:16;;;;;;;7.37;5.03;;;5.70;99.90;;;;;;5050825;28;20192;-65
2024/02/06 04:17:43;;;;;;;9.20;6.03;;;5.70;99.90;;;;;;5048986;28;20626;-65
2024/02/06 04:20:11;;;;;;;8.37;6.17;;;5.70;99.90;;;;;;5052542;28;20571;-65
2024/02/06 04:22:39;;;;;;;11.30;7.00;;;5.70;99.90;;;;;;5033039;28;20216;-65
2024/02/06 04:25:07;;;;;;;10.97;6.43;;;5.60;99.90;;;;;;5050081;28;20273;-65
2024/02/06 04:27:34;;;;;;;9.70;5.63;;;5.60;99.90;;;;;;5050883;28;20666;-65
2024/02/06 04:30:01;;;;;;;9.67;5.47;;;5.60;99.90;;;;;;5039767;28;20218;-65
2024/02/06 04:32:28;;;;;;;7.43;4.80;;;5.60;99.90;;;;;;5031998;28;20227;-65
2024/02/06 04:34:55;;;;;;;7.50;4.50;;;5.50;99.90;;;;;;5050595;28;20642;-65
2024/02/06 04:37:23;;;;;;;10.30;5.93;;;5.50;99.90;;;;;;5050861;28;20196;-64
2024/02/06 04:39:51;;;;;;;9.13;5.53;;;5.50;99.90;;;;;;5048067;28;20307;-65
2024/02/06 04:42:18;;;;;;;6.83;4.83;;;5.50;99.90;;;;;;5044667;28;20192;-65
2024/02/06 04:44:45;;;;;;;7.70;5.40;;;5.60;99.90;;;;;;5050872;28;20694;-65
2024/02/06 04:47:12;;;;;;;5.80;4.17;;;5.60;99.90;;;;;;5049158;28;20224;-65
2024/02/06 04:49:39;;;;;;;6.37;4.17;;;5.60;99.90;;;;;;5050822;28;20204;-65
2024/02/06 04:52:06;;;;;;;5.63;3.90;;;5.60;99.90;;;;;;5049937;28;20196;-64
2024/02/06 04:54:33;;;;;;;5.73;3.83;;;5.60;99.90;;;;;;5049283;28;20218;-64
2024/02/06 04:57:02;;;;;;;6.63;4.20;;;5.60;99.90;;;;;;5050382;28;20206;-64
2024/02/06 04:59:29;;;;;;;7.93;4.83;;;5.60;99.90;;;;;;5038458;28;20283;-65
2024/02/06 05:01:57;;;;;;;8.73;5.40;;;5.70;99.90;;;;;;5049930;28;20689;-65
2024/02/06 05:04:24;;;;;;;8.67;4.73;;;5.70;99.90;;;;;;5050380;28;20723;-64
2024/02/06 05:06:51;;;;;;;6.50;4.20;;;5.70;99.90;;;;;;5050466;28;20247;-64
2024/02/06 05:09:18;;;;;;;8.47;5.33;;;5.70;99.90;;;;;;5039493;28;20203;-65
2024/02/06 05:11:45;;;;;;;7.20;4.67;;;5.70;99.90;;;;;;5046604;28;20271;-65
2024/02/06 05:14:13;;;;;;;6.23;4.40;;;5.70;99.90;;;;;;5050231;28;20203;-65
2024/02/06 05:16:41;;;;;;;6.53;4.07;;;5.60;99.90;;;;;;5049799;28;20203;-65
2024/02/06 05:19:13;;;;;;;7.20;4.87;;;5.60;99.90;;;;;;5049935;28;20253;-65
2024/02/06 05:21:40;;;;;;;10.10;5.80;;;5.50;99.90;;;;;;5049958;28;20214;-65
2024/02/06 05:24:07;;;;;;;8.53;4.97;;;5.60;99.90;;;;;;5047576;28;20709;-64
2024/02/06 05:26:34;;;;;;;7.27;4.67;;;5.60;99.90;;;;;;5045118;28;20199;-63
2024/02/06 05:29:01;;;;;;;6.97;4.53;;;5.50;99.90;;;;;;5045046;28;20280;-63
2024/02/06 05:31:30;;;;;;;6.57;4.60;;;5.50;99.90;;;;;;5031031;28;20290;-64
2024/02/06 05:33:58;;;;;;;4.80;4.10;;;5.50;99.90;;;;;;5047113;28;20207;-64
2024/02/06 05:36:25;;;;;;;5.13;3.93;;;5.50;99.90;;;;;;5038910;28;20638;-64
2024/02/06 05:38:53;;;;;;;8.87;5.10;;;5.40;99.90;;;;;;5039987;28;20252;-64
2024/02/06 05:41:20;;;;;;;7.10;4.60;;;5.40;99.90;;;;;;5022801;28;20675;-64
2024/02/06 05:43:47;;;;;;;5.83;4.20;;;5.40;99.90;;;;;;5049223;28;20622;-64
2024/02/06 05:46:14;;;;;;;8.37;5.30;;;5.40;99.90;;;;;;5049732;28;20215;-64
2024/02/06 05:48:42;;;;;;;7.47;5.03;;;5.40;99.90;;;;;;5049563;28;20506;-65
2024/02/06 05:51:10;;;;;;;14.03;7.57;;;5.40;99.90;;;;;;5049711;28;20197;-64
2024/02/06 05:53:37;;;;;;;10.67;6.00;;;5.40;99.90;;;;;;5050354;28;20196;-64
2024/02/06 05:56:06;;;;;;;11.10;6.57;;;5.40;99.90;;;;;;5037911;28;20302;-64
2024/02/06 05:58:33;;;;;;;13.77;7.30;;;5.50;99.90;;;;;;5050281;28;20192;-64
2024/02/06 06:01:00;;;;;;;8.87;5.90;;;5.50;99.90;;;;;;5049251;28;20312;-64
2024/02/06 06:03:27;;;;;;;8.87;4.90;;;5.40;99.90;;;;;;5048527;28;20644;-64
2024/02/06 06:05:55;;;;;;;8.50;5.60;;;5.40;99.90;;;;;;5046882;28;20507;-64
2024/02/06 06:08:24;;;;;;;10.10;5.47;;;5.50;99.90;;;;;;5044738;28;20196;-64
2024/02/06 06:10:51;;;;;;;7.57;4.83;;;5.40;99.90;;;;;;5048579;28;20274;-63
2024/02/06 06:13:18;;;;;;;5.63;3.97;;;4.80;99.90;;;;;;5050146;28;20562;-65
2024/02/06 06:15:46;;;;;;;7.13;4.37;;;5.40;99.90;;;;;;5049426;28;20286;-64
2024/02/06 06:18:13;;;;;;;9.37;4.63;;;5.40;99.90;;;;;;5049044;28;20643;-65
2024/02/06 06:20:41;;;;;;;9.30;4.50;;;5.40;99.90;;;;;;5048564;28;20215;-64
2024/02/06 06:23:09;;;;;;;6.20;3.83;;;5.40;99.90;;;;;;5052193;28;20290;-65
2024/02/06 06:25:36;;;;;;;6.27;3.70;;;5.30;99.90;;;;;;5045964;28;20642;-64
2024/02/06 06:28:04;;;;;;;6.57;4.23;;;5.30;99.90;;;;;;5053346;28;20622;-63
2024/02/06 06:30:31;;;;;;;7.67;5.07;;;5.30;99.90;;;;;;5052818;28;20218;-65
2024/02/06 06:32:58;;;;;;;9.27;5.97;;;5.30;99.90;;;;;;5031623;28;20316;-65
2024/02/06 06:35:25;;;;;;;6.33;4.30;;;5.30;99.90;;;;;;5050977;28;20403;-64
2024/02/06 06:37:52;;;;;;;5.10;3.87;;;5.30;99.90;;;;;;5053172;28;20287;-64
2024/02/06 06:40:20;;;;;;;5.27;3.70;;;5.30;99.90;;;;;;5036297;28;20284;-64
2024/02/06 06:42:47;;;;;;;6.37;4.20;;;5.20;99.90;;;;;;5053078;28;20206;-64
2024/02/06 06:45:15;;;;;;;17.10;6.30;;;5.20;99.90;;;;;;5052682;28;20566;-64
2024/02/06 06:47:42;;;;;;;12.83;6.27;;;5.30;99.90;;;;;;5052013;28;20206;-64
2024/02/06 06:50:09;;;;;;;10.17;5.90;;;5.30;99.90;;;;;;5041064;28;20273;-64
2024/02/06 06:52:39;;;;;;;12.97;6.43;;;5.30;99.90;;;;;;5052484;28;20260;-64
2024/02/06 06:55:08;;;;;;;9.67;5.47;;;5.30;99.90;;;;;;5051736;28;20247;-65
2024/02/06 06:57:42;;;;;;;8.93;5.43;;;5.30;99.90;;;;;;5052977;28;20260;-64
2024/02/06 07:00:11;;;;;;;12.07;6.93;;;5.40;99.90;;;;;;5052252;28;20194;-64
2024/02/06 07:02:38;;;;;;;8.70;5.40;;;5.40;99.90;;;;;;5051848;28;20288;-64
2024/02/06 07:05:09;;;;;;;8.63;5.20;;;5.40;99.90;;;;;;5052624;28;20235;-64
2024/02/06 07:07:37;;;;;;;7.17;4.77;;;5.40;99.90;;;;;;5052836;28;20253;-64
2024/02/06 07:10:04;;;;;;;7.90;4.97;;;5.40;99.90;;;;;;5051454;28;20282;-64
2024/02/06 07:12:32;;;;;;;9.83;5.70;;;5.40;99.90;;;;;;5046457;28;20318;-65
2024/02/06 07:15:00;;;;;;;9.60;5.93;;;5.40;99.90;;;;;;5052392;28;20214;-65
2024/02/06 07:17:27;;;;;;;5.50;4.30;;;5.40;99.90;;;;;;5051279;28;20260;-65
2024/02/06 07:19:54;;;;;;;4.57;3.87;;;5.40;99.90;;;;;;5052172;28;20253;-65
2024/02/06 07:22:21;;;;;;;7.07;4.77;;;5.40;99.90;;;;;;5052046;28;20215;-65
2024/02/06 07:24:48;;;;;;;8.90;5.30;;;5.40;99.90;;;;;;5051169;28;20642;-65
2024/02/06 07:27:15;;;;;;;9.67;5.60;;;5.40;99.90;;;;;;5052453;28;20252;-63
2024/02/06 07:29:43;;;;;;;7.93;5.50;;;5.50;99.90;;;;;;5052120;28;20218;-64
2024/02/06 07:32:11;;;;;;;9.43;5.70;;;5.40;99.90;;;;;;5051113;28;20256;-63
2024/02/06 07:34:38;;;;;;;8.07;5.67;;;5.40;99.90;;;;;;5049767;28;20208;-64
2024/02/06 07:37:05;;;;;;;9.43;6.20;;;5.50;99.90;;;;;;5051642;28;20291;-64
2024/02/06 07:39:33;;;;;;;8.83;5.93;;;5.50;99.90;;;;;;5050793;28;20249;-64
2024/02/06 07:42:00;;;;;;;6.47;4.53;;;5.40;99.90;;;;;;5050201;28;20245;-64
2024/02/06 07:44:27;;;;;;;7.60;5.20;;;5.40;99.90;;;;;;5051796;28;20585;-63
2024/02/06 07:46:54;;;;;;;5.90;4.40;;;5.40;99.90;;;;;;5051446;28;20281;-64
2024/02/06 07:49:23;;;;;;;8.93;5.90;;;5.40;99.90;;;;;;5051288;28;20627;-65
2024/02/06 07:51:50;;;;;;;6.90;4.47;;;5.40;99.90;;;;;;5050972;28;20252;-65
2024/02/06 07:54:17;;;;;;;8.73;5.77;;;5.50;99.90;;;;;;5050726;28;20278;-65
2024/02/06 07:56:44;;;;;;;8.80;5.23;;;5.50;99.90;;;;;;5051662;28;20272;-64
2024/02/06 07:59:13;;;;;;;12.40;7.10;;;5.50;99.90;;;;;;5051515;28;20251;-63
2024/02/06 08:01:40;;;;;;;12.43;7.37;;;5.50;99.90;;;;;;5051229;28;20232;-63
2024/02/06 08:04:08;;;;;;;8.30;5.87;;;5.50;99.90;;;;;;5056116;28;20296;-64
2024/02/06 08:06:37;;;;;;;11.07;6.80;;;5.50;99.90;;;;;;5047251;28;20233;-64
2024/02/06 08:09:05;;;;;;;8.67;5.90;;;5.50;99.90;;;;;;5049821;28;20190;-64
2024/02/06 08:11:32;;;;;;;10.73;6.30;;;5.40;99.90;;;;;;5028781;28;20657;-65
2024/02/06 08:14:01;;;;;;;7.10;5.07;;;5.50;99.90;;;;;;5037549;28;20289;-64
2024/02/06 08:16:28;;;;;;;8.20;5.23;;;5.40;99.90;;;;;;5050789;28;20638;-64
2024/02/06 08:18:55;;;;;;;5.80;4.13;;;5.40;99.90;;;;;;5043821;28;20600;-64
2024/02/06 08:21:22;;;;;;;7.80;5.00;;;5.40;99.90;;;;;;5039977;28;20579;-64
2024/02/06 08:23:51;;;;;;;6.90;5.03;;;5.30;99.90;;;;;;5051174;28;20561;-64
2024/02/06 08:26:18;;;;;;;8.60;5.10;;;5.40;99.90;;;;;;5032193;28;20225;-64
2024/02/06 08:28:46;;;;;;;8.43;5.60;;;5.40;99.90;;;;;;5050591;28;20285;-64
2024/02/06 08:31:13;;;;;;;6.63;4.90;;;5.40;99.90;;;;;;5026760;28;20617;-63
2024/02/06 08:33:44;;;;;;;13.20;7.63;;;5.50;99.90;;;;;;5038839;28;20582;-64
2024/02/06 08:36:13;;;;;;;11.53;6.80;;;5.50;99.90;;;;;;5048219;28;20199;-63
2024/02/06 08:38:40;;;;;;;14.17;8.40;;;5.60;99.90;;;;;;5051027;28;20286;-63
2024/02/06 08:41:09;;;;;;;11.90;6.50;;;5.60;99.90;;;;;;5049757;28;20239;-66
2024/02/06 08:43:36;;;;;;;17.63;8.40;;;5.70;99.90;;;;;;5043353;28;20255;-63
2024/02/06 08:46:04;;;;;;;18.73;9.73;;;5.70;99.90;;;;;;5049659;28;20196;-64
2024/02/06 08:48:31;;;;;;;14.40;7.80;;;5.80;99.90;;;;;;5050410;28;20231;-64
2024/02/06 08:50:59;;;;;;;15.27;8.20;;;5.80;99.90;;;;;;5050365;28;20276;-64
2024/02/06 08:53:26;;;;;;;15.83;8.27;;;5.80;99.90;;;;;;5050458;28;20223;-64
2024/02/06 08:55:53;;;;;;;18.10;8.30;;;5.80;99.90;;;;;;5049850;28;20294;-63
2024/02/06 08:58:22;;;;;;;13.83;8.20;;;5.80;99.90;;;;;;5050980;28;20659;-65
2024/02/06 09:00:49;;;;;;;14.77;7.70;;;5.70;99.90;;;;;;5050920;28;20627;-64
2024/02/06 09:03:16;;;;;;;13.83;8.67;;;5.80;99.90;;;;;;5044969;28;20626;-65
2024/02/06 09:05:44;;;;;;;12.40;7.27;;;5.80;99.90;;;;;;5048134;28;20658;-65
2024/02/06 09:08:12;;;;;;;13.27;7.70;;;5.80;99.90;;;;;;5047698;28;20290;-65
2024/02/06 09:10:39;;;;;;;14.83;8.80;;;5.80;99.90;;;;;;5023939;28;20260;-65
2024/02/06 09:13:06;;;;;;;15.77;8.40;;;5.90;99.90;;;;;;5050870;28;20609;-65
2024/02/06 09:15:34;;;;;;;12.03;7.63;;;5.90;99.90;;;;;;5050267;28;20200;-65
2024/02/06 09:18:01;;;;;;;17.63;8.73;;;6.00;99.90;;;;;;5049804;28;20815;-65
2024/02/06 09:20:28;;;;;;;15.63;8.57;;;6.00;99.90;;;;;;5048136;28;20220;-64
2024/02/06 09:22:55;;;;;;;14.10;7.83;;;6.10;99.90;;;;;;5044865;28;20215;-64
2024/02/06 09:25:22;;;;;;;13.50;7.23;;;6.10;99.90;;;;;;5048974;28;20228;-64
2024/02/06 09:27:49;;;;;;;15.50;9.23;;;6.10;99.90;;;;;;5042891;28;20231;-64
2024/02/06 09:30:18;;;;;;;19.80;11.20;;;6.20;99.90;;;;;;5046557;28;20275;-64
2024/02/06 09:32:46;;;;;;;17.00;9.57;;;6.30;99.90;;;;;;5043244;28;20198;-64
2024/02/06 09:35:13;;;;;;;17.63;9.50;;;6.30;99.90;;;;;;5047203;28;20282;-64
2024/02/06 09:37:40;;;;;;;18.13;10.50;;;6.30;99.90;;;;;;5045514;28;20612;-64
2024/02/06 09:40:08;;;;;;;15.50;9.37;;;6.30;99.90;;;;;;5046835;28;20206;-64
2024/02/06 09:42:36;;;;;;;18.80;11.23;;;6.30;99.90;;;;;;5050186;28;20572;-64
2024/02/06 09:45:04;;;;;;;21.77;12.20;;;6.40;99.90;;;;;;5050202;28;20223;-65
2024/02/06 09:47:31;;;;;;;18.03;11.03;;;6.40;99.90;;;;;;5049293;28;20201;-65
2024/02/06 09:50:03;;;;;;;18.87;10.67;;;6.40;99.90;;;;;;5050169;28;20625;-65
2024/02/06 09:52:31;;;;;;;19.57;10.53;;;6.40;99.90;;;;;;5049783;28;20212;-65
2024/02/06 09:55:05;;;;;;;17.93;10.37;;;6.40;99.90;;;;;;5048867;28;20259;-64
2024/02/06 09:57:33;;;;;;;16.77;9.80;;;6.40;99.90;;;;;;5051709;28;20304;-64
2024/02/06 10:00:02;;;;;;;17.93;10.20;;;6.30;99.90;;;;;;5052704;28;20281;-64
2024/02/06 10:02:31;;;;;;;16.67;9.73;;;6.30;99.90;;;;;;5047331;28;20269;-64
2024/02/06 10:05:02;;;;;;;17.53;9.97;;;6.40;99.90;;;;;;5052953;28;20227;-64
2024/02/06 10:07:29;;;;;;;13.33;8.33;;;6.40;99.90;;;;;;5053018;28;20452;-65
2024/02/06 10:09:58;;;;;;;13.33;7.40;;;6.40;99.90;;;;;;5052608;28;20228;-65
2024/02/06 10:12:26;;;;;;;19.60;11.17;;;6.40;99.90;;;;;;5053278;28;20676;-64
2024/02/06 10:14:53;;;;;;;17.20;9.03;;;6.50;99.90;;;;;;5053545;28;20269;-63
2024/02/06 10:17:20;;;;;;;14.80;8.47;;;6.50;99.90;;;;;;5035716;28;20610;-64
2024/02/06 10:19:47;;;;;;;15.53;8.77;;;6.50;99.90;;;;;;5053179;28;20246;-65
2024/02/06 10:22:16;;;;;;;14.83;8.83;;;6.50;99.90;;;;;;5052972;28;20267;-64
2024/02/06 10:24:43;;;;;;;18.13;10.17;;;6.50;99.90;;;;;;5045521;28;20735;-64
2024/02/06 10:27:10;;;;;;;15.97;9.60;;;6.60;99.90;;;;;;5053352;28;20537;-64
2024/02/06 10:29:38;;;;;;;15.97;9.47;;;6.60;99.90;;;;;;5053156;28;20308;-63
2024/02/06 10:32:13;;;;;;;17.93;10.30;;;6.70;99.90;;;;;;5052174;28;20199;-64
2024/02/06 10:34:40;;;;;;;14.33;9.07;;;6.80;99.90;;;;;;5052045;28;20549;-65
2024/02/06 10:37:09;;;;;;;15.73;8.63;;;6.80;99.90;;;;;;5051915;28;20221;-64
2024/02/06 10:39:37;;;;;;;15.50;8.90;;;6.80;99.90;;;;;;5051677;28;20201;-64
2024/02/06 10:42:05;;;;;;;15.17;9.53;;;6.80;99.90;;;;;;5052011;28;20206;-64
2024/02/06 10:44:33;;;;;;;14.30;8.70;;;6.80;99.90;;;;;;5053013;28;20198;-64
2024/02/06 10:47:01;;;;;;;16.27;9.13;;;6.90;99.90;;;;;;5052808;28;20196;-64
2024/02/06 10:49:28;;;;;;;12.60;7.80;;;6.90;99.90;;;;;;5052515;28;20208;-64
2024/02/06 10:52:06;;;;;;;13.93;9.10;;;7.00;99.90;;;;;;5051293;28;20212;-64
2024/02/06 10:54:34;;;;;;;13.93;8.50;;;7.00;99.90;;;;;;5051563;28;20204;-64
2024/02/06 10:57:06;;;;;;;15.00;9.70;;;7.10;99.90;;;;;;5053059;28;20226;-64
2024/02/06 10:59:47;;;;;;;17.37;9.70;;;7.10;99.90;;;;;;5042373;28;20225;-63
2024/02/06 11:02:24;;;;;;;15.97;10.13;;;7.20;99.90;;;;;;5046452;28;20202;-65
2024/02/06 11:04:59;;;;;;;14.53;8.37;;;7.20;99.90;;;;;;5052697;28;20283;-64
2024/02/06 11:07:30;;;;;;;14.13;8.20;;;7.20;99.90;;;;;;5052334;28;20197;-63
2024/02/06 11:10:01;;;;;;;20.73;9.50;;;7.20;99.90;;;;;;5050986;28;20252;-64
2024/02/06 11:12:30;;;;;;;16.33;9.43;;;7.30;99.90;;;;;;5052900;28;20224;-64
2024/02/06 11:15:01;;;;;;;17.23;9.97;;;7.30;99.90;;;;;;5052323;28;20202;-65
2024/02/06 11:17:31;;;;;;;15.17;9.13;;;7.30;99.90;;;;;;5051820;28;20584;-65
2024/02/06 11:20:04;;;;;;;16.93;8.87;;;7.40;99.90;;;;;;5051570;28;20206;-64
2024/02/06 11:22:36;;;;;;;15.63;10.00;;;7.40;99.90;;;;;;5037539;28;20209;-64
2024/02/06 11:25:04;;;;;;;15.97;9.00;;;7.40;99.90;;;;;;5051161;28;20652;-64
2024/02/06 11:27:34;;;;;;;18.30;9.37;;;7.50;99.90;;;;;;5052090;28;20200;-64
2024/02/06 11:30:02;;;;;;;14.37;8.47;;;7.50;99.90;;;;;;5052151;28;20252;-64
2024/02/06 11:32:29;;;;;;;17.77;10.13;;;7.60;99.90;;;;;;5051084;28;20220;-64
2024/02/06 11:34:57;;;;;;;20.37;10.03;;;7.60;99.90;;;;;;5051932;28;20228;-64
2024/02/06 11:37:25;;;;;;;17.33;8.73;;;7.60;99.90;;;;;;5035597;28;20297;-65
2024/02/06 11:40:06;;;;;;;16.97;8.43;;;7.60;99.90;;;;;;5048622;28;20200;-64
2024/02/06 11:42:36;;;;;;;13.17;7.57;;;7.70;99.90;;;;;;5052782;28;20580;-64
2024/02/06 11:45:11;;;;;;;14.53;7.70;;;7.70;99.90;;;;;;5051494;28;20190;-64
2024/02/06 11:47:38;;;;;;;12.47;6.93;;;7.70;99.90;;;;;;5051403;28;20765;-64
2024/02/06 11:50:10;;;;;;;11.43;7.03;;;7.80;99.90;;;;;;5058627;28;20277;-64
2024/02/06 11:52:37;;;;;;;13.13;7.43;;;7.80;99.90;;;;;;5051086;28;20335;-64
2024/02/06 11:55:06;;;;;;;13.50;7.43;;;7.80;99.90;;;;;;5037929;28;20198;-64
2024/02/06 11:57:33;;;;;;;12.00;6.77;;;7.90;99.90;;;;;;5050583;28;20646;-64
2024/02/06 12:00:02;;;;;;;10.73;6.50;;;7.90;99.90;;;;;;5052074;28;20222;-64
2024/02/06 12:02:29;;;;;;;11.73;6.10;;;8.00;99.90;;;;;;5051083;28;20221;-64
2024/02/06 12:05:04;;;;;;;11.60;6.63;;;8.00;99.90;;;;;;5051820;28;20230;-64
2024/02/06 12:07:31;;;;;;;9.27;5.63;;;8.10;99.90;;;;;;5051292;28;20703;-63
2024/02/06 12:09:58;;;;;;;20.97;9.50;;;8.10;99.90;;;;;;5050230;28;20259;-64
2024/02/06 12:12:26;;;;;;;23.37;11.20;;;8.20;99.90;;;;;;5051346;28;20198;-64
2024/02/06 12:14:53;;;;;;;22.87;10.97;;;8.20;99.90;;;;;;5051683;28;20225;-64
2024/02/06 12:17:23;;;;;;;23.53;11.00;;;8.20;99.90;;;;;;5046735;28;20222;-64
2024/02/06 12:19:51;;;;;;;20.00;9.77;;;8.30;99.90;;;;;;5050624;28;20193;-64
2024/02/06 12:22:19;;;;;;;22.13;10.43;;;8.30;99.90;;;;;;5049191;28;20249;-64
2024/02/06 12:24:46;;;;;;;20.23;10.37;;;8.30;99.90;;;;;;5050191;28;20291;-64
2024/02/06 12:27:13;;;;;;;21.17;10.20;;;8.30;99.90;;;;;;5051071;28;20560;-64
2024/02/06 12:29:42;;;;;;;17.07;8.70;;;8.30;99.90;;;;;;5036698;28;20308;-64
2024/02/06 12:32:09;;;;;;;15.27;7.97;;;8.40;99.90;;;;;;5050028;28;20225;-63
2024/02/06 12:34:38;;;;;;;15.93;9.53;;;8.40;99.90;;;;;;5050974;28;20645;-64
2024/02/06 12:37:05;;;;;;;15.67;8.83;;;8.40;99.90;;;;;;5050321;28;20224;-64
2024/02/06 12:39:32;;;;;;;15.43;8.93;;;8.50;99.90;;;;;;5049603;28;20220;-63
2024/02/06 12:42:00;;;;;;;13.90;7.73;;;8.50;99.90;;;;;;5049750;28;20202;-64
2024/02/06 12:44:28;;;;;;;15.33;8.50;;;8.60;99.90;;;;;;5048058;28;20205;-65
2024/02/06 12:46:56;;;;;;;17.10;8.40;;;8.60;99.90;;;;;;5042398;28;20593;-65
2024/02/06 12:49:25;;;;;;;14.30;8.27;;;8.60;99.90;;;;;;5050491;28;20202;-65
2024/02/06 12:51:56;;;;;;;11.67;6.83;;;8.60;99.90;;;;;;5050742;28;20259;-65
2024/02/06 12:54:24;;;;;;;9.47;6.40;;;8.70;99.90;;;;;;5049384;28;20196;-65